sensor_id;sensor_type;location;lat;lon;timestamp;temperature;humidity
22503;DHT22;11418;48.118;9.992;2022-07-22T00:03:05;15.60;99.90
22503;DHT22;11418;48.118;9.992;2022-07-22T00:07:05;15.40;99.90
22503;DHT22;11418;48.118;9.992;2022-07-22T00:11:06;15.50;99.90
22503;DHT22;11418;48.118;9.992;2022-07-22T00:15:07;15.50;99.90
22503;DHT22;11418;48.118;9.992;2022-07-22T00:19:08;15.60;99.90
22503;DHT22;11418;48.118;9.992;2022-07-22T00:23:09;15.50;99.90
22503;DHT22;11418;48.118;9.992;2022-07-22T00:27:09;15.40;99.90
22503;DHT22;11418;48.118;9.992;2022-07-22T00:31:10;15.40;99.90
22503;DHT22;11418;48.118;9.992;2022-07-22T00:35:11;15.20;99.90
22503;DHT22;11418;48.118;9.992;2022-07-22T00:39:11;15.00;99.90
22503;DHT22;11418;48.118;9.992;2022-07-22T00:43:12;14.90;99.90
22503;DHT22;11418;48.118;9.992;2022-07-22T00:47:13;14.70;99.90
22503;DHT22;11418;48.118;9.992;2022-07-22T00:51:13;14.60;99.90
22503;DHT22;11418;48.118;9.992;2022-07-22T00:55:14;14.50;99.90
22503;DHT22;11418;48.118;9.992;2022-07-22T00:59:15;14.40;99.90
22503;DHT22;11418;48.118;9.992;2022-07-22T01:03:15;14.50;99.90
22503;DHT22;11418;48.118;9.992;2022-07-22T01:07:17;14.40;99.90
22503;DHT22;11418;48.118;9.992;2022-07-22T01:11:19;14.50;99.90
22503;DHT22;11418;48.118;9.992;2022-07-22T01:15:20;14.60;99.90
22503;DHT22;11418;48.118;9.992;2022-07-22T01:19:21;14.50;99.90
22503;DHT22;11418;48.118;9.992;2022-07-22T01:23:21;14.40;99.90
22503;DHT22;11418;48.118;9.992;2022-07-22T01:27:22;14.50;99.90
22503;DHT22;11418;48.118;9.992;2022-07-22T01:31:23;14.30;99.90
22503;DHT22;11418;48.118;9.992;2022-07-22T01:35:23;14.20;99.90
22503;DHT22;11418;48.118;9.992;2022-07-22T01:39:24;14.20;99.90
22503;DHT22;11418;48.118;9.992;2022-07-22T01:43:25;14.20;99.90
22503;DHT22;11418;48.118;9.992;2022-07-22T01:47:25;14.10;99.90
22503;DHT22;11418;48.118;9.992;2022-07-22T01:51:26;14.10;99.90
22503;DHT22;11418;48.118;9.992;2022-07-22T01:55:26;14.10;99.90
22503;DHT22;11418;48.118;9.992;2022-07-22T01:59:27;14.10;99.90
22503;DHT22;11418;48.118;9.992;2022-07-22T02:03:27;14.10;99.90
22503;DHT22;11418;48.118;9.992;2022-07-22T02:07:28;14.10;99.90
22503;DHT22;11418;48.118;9.992;2022-07-22T02:11:28;13.90;99.90
22503;DHT22;11418;48.118;9.992;2022-07-22T02:15:29;13.70;99.90
22503;DHT22;11418;48.118;9.992;2022-07-22T02:19:30;13.60;99.90
22503;DHT22;11418;48.118;9.992;2022-07-22T02:23:30;13.50;99.90
22503;DHT22;11418;48.118;9.992;2022-07-22T02:27:31;13.50;99.90
22503;DHT22;11418;48.118;9.992;2022-07-22T02:31:31;13.50;99.90
22503;DHT22;11418;48.118;9.992;2022-07-22T02:35:32;13.50;99.90
22503;DHT22;11418;48.118;9.992;2022-07-22T02:39:33;13.40;99.90
22503;DHT22;11418;48.118;9.992;2022-07-22T02:43:33;13.20;99.90
22503;DHT22;11418;48.118;9.992;2022-07-22T02:47:34;13.00;99.90
22503;DHT22;11418;48.118;9.992;2022-07-22T02:51:34;12.90;99.90
22503;DHT22;11418;48.118;9.992;2022-07-22T02:55:35;13.00;99.90
22503;DHT22;11418;48.118;9.992;2022-07-22T02:59:35;13.00;99.90
22503;DHT22;11418;48.118;9.992;2022-07-22T03:03:36;13.10;99.90
22503;DHT22;11418;48.118;9.992;2022-07-22T03:07:37;13.10;99.90
22503;DHT22;11418;48.118;9.992;2022-07-22T03:11:37;13.10;99.90
22503;DHT22;11418;48.118;9.992;2022-07-22T03:15:38;13.00;99.90
22503;DHT22;11418;48.118;9.992;2022-07-22T03:19:39;12.90;99.90
22503;DHT22;11418;48.118;9.992;2022-07-22T03:23:39;12.90;99.90
22503;DHT22;11418;48.118;9.992;2022-07-22T03:27:40;12.80;99.90
22503;DHT22;11418;48.118;9.992;2022-07-22T03:31:40;12.80;99.90
22503;DHT22;11418;48.118;9.992;2022-07-22T03:35:41;12.80;99.90
22503;DHT22;11418;48.118;9.992;2022-07-22T03:39:41;12.80;99.90
22503;DHT22;11418;48.118;9.992;2022-07-22T03:43:42;12.70;99.90
22503;DHT22;11418;48.118;9.992;2022-07-22T03:47:42;12.60;99.90
22503;DHT22;11418;48.118;9.992;2022-07-22T03:51:43;12.70;99.90
22503;DHT22;11418;48.118;9.992;2022-07-22T03:55:43;12.50;99.90
22503;DHT22;11418;48.118;9.992;2022-07-22T03:59:44;12.40;99.90
22503;DHT22;11418;48.118;9.992;2022-07-22T04:03:44;12.40;99.90
22503;DHT22;11418;48.118;9.992;2022-07-22T04:07:45;12.40;99.90
22503;DHT22;11418;48.118;9.992;2022-07-22T04:11:46;12.90;99.90
22503;DHT22;11418;48.118;9.992;2022-07-22T04:15:46;13.30;99.90
22503;DHT22;11418;48.118;9.992;2022-07-22T04:19:47;13.80;99.90
22503;DHT22;11418;48.118;9.992;2022-07-22T04:23:48;14.20;99.90
22503;DHT22;11418;48.118;9.992;2022-07-22T04:27:49;14.50;99.90
22503;DHT22;11418;48.118;9.992;2022-07-22T04:31:51;14.90;99.90
22503;DHT22;11418;48.118;9.992;2022-07-22T04:35:51;15.20;99.90
22503;DHT22;11418;48.118;9.992;2022-07-22T04:39:52;15.20;99.90
22503;DHT22;11418;48.118;9.992;2022-07-22T04:43:52;15.30;99.90
22503;DHT22;11418;48.118;9.992;2022-07-22T04:47:53;15.40;99.90
22503;DHT22;11418;48.118;9.992;2022-07-22T04:51:53;15.20;99.90
22503;DHT22;11418;48.118;9.992;2022-07-22T04:55:54;15.70;99.90
22503;DHT22;11418;48.118;9.992;2022-07-22T04:59:54;16.50;99.90
22503;DHT22;11418;48.118;9.992;2022-07-22T05:03:55;16.90;99.90
22503;DHT22;11418;48.118;9.992;2022-07-22T05:07:55;17.70;99.90
22503;DHT22;11418;48.118;9.992;2022-07-22T05:11:56;18.60;99.90
22503;DHT22;11418;48.118;9.992;2022-07-22T05:15:56;19.20;99.90
22503;DHT22;11418;48.118;9.992;2022-07-22T05:19:57;19.90;99.90
22503;DHT22;11418;48.118;9.992;2022-07-22T05:23:57;20.20;99.90
22503;DHT22;11418;48.118;9.992;2022-07-22T05:27:58;20.30;99.90
22503;DHT22;11418;48.118;9.992;2022-07-22T05:31:59;21.00;99.90
22503;DHT22;11418;48.118;9.992;2022-07-22T05:35:59;21.60;99.90
22503;DHT22;11418;48.118;9.992;2022-07-22T05:40:00;22.20;99.90
22503;DHT22;11418;48.118;9.992;2022-07-22T05:44:00;22.50;99.90
22503;DHT22;11418;48.118;9.992;2022-07-22T05:48:01;22.50;99.90
22503;DHT22;11418;48.118;9.992;2022-07-22T05:52:01;22.90;99.90
22503;DHT22;11418;48.118;9.992;2022-07-22T05:56:02;23.60;99.90
22503;DHT22;11418;48.118;9.992;2022-07-22T06:00:04;23.60;99.90
22503;DHT22;11418;48.118;9.992;2022-07-22T06:04:05;24.10;99.90
22503;DHT22;11418;48.118;9.992;2022-07-22T06:08:06;24.30;99.90
22503;DHT22;11418;48.118;9.992;2022-07-22T06:12:06;24.20;99.90
22503;DHT22;11418;48.118;9.992;2022-07-22T06:16:07;24.90;99.90
22503;DHT22;11418;48.118;9.992;2022-07-22T06:20:08;25.70;99.90
22503;DHT22;11418;48.118;9.992;2022-07-22T06:24:09;26.00;99.90
22503;DHT22;11418;48.118;9.992;2022-07-22T06:28:10;26.60;99.90
22503;DHT22;11418;48.118;9.992;2022-07-22T06:32:11;27.10;99.90
22503;DHT22;11418;48.118;9.992;2022-07-22T06:36:11;27.60;99.90
22503;DHT22;11418;48.118;9.992;2022-07-22T06:40:14;27.60;99.90
22503;DHT22;11418;48.118;9.992;2022-07-22T06:44:15;27.60;99.90
22503;DHT22;11418;48.118;9.992;2022-07-22T06:48:15;27.50;99.90
22503;DHT22;11418;48.118;9.992;2022-07-22T06:52:16;27.70;99.90
22503;DHT22;11418;48.118;9.992;2022-07-22T06:56:16;27.60;99.90
22503;DHT22;11418;48.118;9.992;2022-07-22T07:00:17;27.70;99.90
22503;DHT22;11418;48.118;9.992;2022-07-22T07:04:18;27.30;99.90
22503;DHT22;11418;48.118;9.992;2022-07-22T07:08:19;27.40;99.90
22503;DHT22;11418;48.118;9.992;2022-07-22T07:12:19;27.60;99.90
22503;DHT22;11418;48.118;9.992;2022-07-22T07:16:20;27.30;99.90
22503;DHT22;11418;48.118;9.992;2022-07-22T07:20:20;27.70;99.90
22503;DHT22;11418;48.118;9.992;2022-07-22T07:24:21;27.50;99.90
22503;DHT22;11418;48.118;9.992;2022-07-22T07:28:22;27.90;99.90
22503;DHT22;11418;48.118;9.992;2022-07-22T07:32:22;28.30;99.00
22503;DHT22;11418;48.118;9.992;2022-07-22T07:36:23;28.60;98.30
22503;DHT22;11418;48.118;9.992;2022-07-22T07:40:23;28.80;98.10
22503;DHT22;11418;48.118;9.992;2022-07-22T07:44:24;28.70;96.60
22503;DHT22;11418;48.118;9.992;2022-07-22T07:48:24;29.20;96.50
22503;DHT22;11418;48.118;9.992;2022-07-22T07:52:25;28.80;94.90
22503;DHT22;11418;48.118;9.992;2022-07-22T07:56:26;28.50;94.60
22503;DHT22;11418;48.118;9.992;2022-07-22T08:00:26;28.40;94.60
22503;DHT22;11418;48.118;9.992;2022-07-22T08:04:29;28.60;94.90
22503;DHT22;11418;48.118;9.992;2022-07-22T08:08:29;28.90;94.50
22503;DHT22;11418;48.118;9.992;2022-07-22T08:12:30;29.20;94.10
22503;DHT22;11418;48.118;9.992;2022-07-22T08:16:30;29.20;94.60
22503;DHT22;11418;48.118;9.992;2022-07-22T08:20:31;28.70;94.50
22503;DHT22;11418;48.118;9.992;2022-07-22T08:24:32;28.80;96.00
22503;DHT22;11418;48.118;9.992;2022-07-22T08:28:32;29.10;93.30
22503;DHT22;11418;48.118;9.992;2022-07-22T08:32:33;29.70;93.80
22503;DHT22;11418;48.118;9.992;2022-07-22T08:36:34;29.40;94.90
22503;DHT22;11418;48.118;9.992;2022-07-22T08:40:35;29.70;96.80
22503;DHT22;11418;48.118;9.992;2022-07-22T08:44:36;29.90;95.00
22503;DHT22;11418;48.118;9.992;2022-07-22T08:48:37;29.80;93.30
22503;DHT22;11418;48.118;9.992;2022-07-22T08:52:38;29.90;93.00
22503;DHT22;11418;48.118;9.992;2022-07-22T08:56:38;29.80;96.30
22503;DHT22;11418;48.118;9.992;2022-07-22T09:00:40;30.00;93.90
22503;DHT22;11418;48.118;9.992;2022-07-22T09:04:59;30.30;94.30
22503;DHT22;11418;48.118;9.992;2022-07-22T09:09:02;29.80;92.20
22503;DHT22;11418;48.118;9.992;2022-07-22T09:13:06;29.80;94.90
22503;DHT22;11418;48.118;9.992;2022-07-22T09:17:06;30.10;90.40
22503;DHT22;11418;48.118;9.992;2022-07-22T09:21:11;30.30;93.60
22503;DHT22;11418;48.118;9.992;2022-07-22T09:29:26;30.60;93.70
22503;DHT22;11418;48.118;9.992;2022-07-22T09:33:27;31.00;89.40
22503;DHT22;11418;48.118;9.992;2022-07-22T09:37:27;31.60;84.70
22503;DHT22;11418;48.118;9.992;2022-07-22T09:41:28;31.60;82.90
22503;DHT22;11418;48.118;9.992;2022-07-22T09:45:29;31.30;85.50
22503;DHT22;11418;48.118;9.992;2022-07-22T09:49:36;31.60;86.20
22503;DHT22;11418;48.118;9.992;2022-07-22T09:53:39;31.90;79.50
22503;DHT22;11418;48.118;9.992;2022-07-22T09:57:40;31.90;86.60
22503;DHT22;11418;48.118;9.992;2022-07-22T10:01:41;31.40;75.40
22503;DHT22;11418;48.118;9.992;2022-07-22T10:05:42;30.80;77.90
22503;DHT22;11418;48.118;9.992;2022-07-22T10:09:45;30.90;81.60
22503;DHT22;11418;48.118;9.992;2022-07-22T10:13:46;31.30;80.30
22503;DHT22;11418;48.118;9.992;2022-07-22T10:17:52;31.10;81.10
22503;DHT22;11418;48.118;9.992;2022-07-22T10:21:53;31.20;83.20
22503;DHT22;11418;48.118;9.992;2022-07-22T10:25:56;31.50;76.90
22503;DHT22;11418;48.118;9.992;2022-07-22T10:29:59;31.50;76.40
22503;DHT22;11418;48.118;9.992;2022-07-22T10:34:00;31.20;75.60
22503;DHT22;11418;48.118;9.992;2022-07-22T10:38:06;31.10;79.20
22503;DHT22;11418;48.118;9.992;2022-07-22T10:42:07;31.50;78.40
22503;DHT22;11418;48.118;9.992;2022-07-22T10:46:08;31.90;76.80
22503;DHT22;11418;48.118;9.992;2022-07-22T10:59:17;34.10;69.40
22503;DHT22;11418;48.118;9.992;2022-07-22T11:03:24;34.30;63.00
22503;DHT22;11418;48.118;9.992;2022-07-22T11:07:25;34.00;58.60
22503;DHT22;11418;48.118;9.992;2022-07-22T11:15:45;35.10;56.50
22503;DHT22;11418;48.118;9.992;2022-07-22T11:19:50;35.00;57.70
22503;DHT22;11418;48.118;9.992;2022-07-22T11:23:55;35.50;56.20
22503;DHT22;11418;48.118;9.992;2022-07-22T11:27:56;36.10;56.00
22503;DHT22;11418;48.118;9.992;2022-07-22T11:31:59;36.00;53.90
22503;DHT22;11418;48.118;9.992;2022-07-22T11:36:04;36.40;54.70
22503;DHT22;11418;48.118;9.992;2022-07-22T11:40:07;36.70;51.10
22503;DHT22;11418;48.118;9.992;2022-07-22T11:44:08;35.90;54.80
22503;DHT22;11418;48.118;9.992;2022-07-22T11:48:09;36.60;50.20
22503;DHT22;11418;48.118;9.992;2022-07-22T11:52:10;37.30;51.20
22503;DHT22;11418;48.118;9.992;2022-07-22T11:56:13;37.00;50.00
22503;DHT22;11418;48.118;9.992;2022-07-22T12:00:19;37.30;47.90
22503;DHT22;11418;48.118;9.992;2022-07-22T12:04:23;38.00;48.80
22503;DHT22;11418;48.118;9.992;2022-07-22T12:08:24;39.20;43.80
22503;DHT22;11418;48.118;9.992;2022-07-22T12:12:39;39.80;44.50
22503;DHT22;11418;48.118;9.992;2022-07-22T12:16:41;40.00;41.00
22503;DHT22;11418;48.118;9.992;2022-07-22T12:20:44;40.70;43.80
22503;DHT22;11418;48.118;9.992;2022-07-22T12:24:46;41.20;41.80
22503;DHT22;11418;48.118;9.992;2022-07-22T12:29:13;39.70;41.80
22503;DHT22;11418;48.118;9.992;2022-07-22T12:33:14;38.80;43.50
22503;DHT22;11418;48.118;9.992;2022-07-22T12:37:23;38.70;41.90
22503;DHT22;11418;48.118;9.992;2022-07-22T12:41:27;39.30;42.50
22503;DHT22;11418;48.118;9.992;2022-07-22T12:45:31;39.50;40.90
22503;DHT22;11418;48.118;9.992;2022-07-22T12:49:32;40.20;40.70
22503;DHT22;11418;48.118;9.992;2022-07-22T12:53:32;39.30;41.20
22503;DHT22;11418;48.118;9.992;2022-07-22T12:57:33;40.10;41.70
22503;DHT22;11418;48.118;9.992;2022-07-22T13:01:34;41.50;40.90
22503;DHT22;11418;48.118;9.992;2022-07-22T13:05:35;42.70;35.90
22503;DHT22;11418;48.118;9.992;2022-07-22T13:09:36;41.60;37.20
22503;DHT22;11418;48.118;9.992;2022-07-22T13:13:36;40.20;41.60
22503;DHT22;11418;48.118;9.992;2022-07-22T13:17:37;40.60;36.80
22503;DHT22;11418;48.118;9.992;2022-07-22T13:21:38;41.20;37.50
22503;DHT22;11418;48.118;9.992;2022-07-22T13:25:39;39.90;40.20
22503;DHT22;11418;48.118;9.992;2022-07-22T13:29:40;40.50;39.00
22503;DHT22;11418;48.118;9.992;2022-07-22T13:33:40;41.20;36.30
22503;DHT22;11418;48.118;9.992;2022-07-22T13:37:41;42.70;34.00
22503;DHT22;11418;48.118;9.992;2022-07-22T13:41:41;43.30;34.10
22503;DHT22;11418;48.118;9.992;2022-07-22T13:45:42;41.90;32.60
22503;DHT22;11418;48.118;9.992;2022-07-22T13:49:42;42.90;32.10
22503;DHT22;11418;48.118;9.992;2022-07-22T13:53:44;43.70;33.60
22503;DHT22;11418;48.118;9.992;2022-07-22T13:57:45;43.70;32.10
22503;DHT22;11418;48.118;9.992;2022-07-22T14:01:46;44.60;31.40
22503;DHT22;11418;48.118;9.992;2022-07-22T14:05:48;41.10;33.20
22503;DHT22;11418;48.118;9.992;2022-07-22T14:09:49;40.70;34.60
22503;DHT22;11418;48.118;9.992;2022-07-22T14:13:49;41.10;36.40
22503;DHT22;11418;48.118;9.992;2022-07-22T14:17:50;41.90;33.80
22503;DHT22;11418;48.118;9.992;2022-07-22T14:21:50;41.90;34.50
22503;DHT22;11418;48.118;9.992;2022-07-22T14:25:51;43.30;31.20
22503;DHT22;11418;48.118;9.992;2022-07-22T14:29:51;44.20;31.30
22503;DHT22;11418;48.118;9.992;2022-07-22T14:33:53;44.80;32.80
22503;DHT22;11418;48.118;9.992;2022-07-22T14:37:53;43.70;32.00
22503;DHT22;11418;48.118;9.992;2022-07-22T14:41:54;44.40;33.30
22503;DHT22;11418;48.118;9.992;2022-07-22T14:45:54;45.60;30.20
22503;DHT22;11418;48.118;9.992;2022-07-22T14:49:55;46.00;29.40
22503;DHT22;11418;48.118;9.992;2022-07-22T14:53:56;44.20;30.80
22503;DHT22;11418;48.118;9.992;2022-07-22T14:57:56;43.70;30.90
22503;DHT22;11418;48.118;9.992;2022-07-22T15:01:57;43.50;30.60
22503;DHT22;11418;48.118;9.992;2022-07-22T15:05:57;43.00;31.30
22503;DHT22;11418;48.118;9.992;2022-07-22T15:09:58;43.50;30.00
22503;DHT22;11418;48.118;9.992;2022-07-22T15:13:58;44.60;30.10
22503;DHT22;11418;48.118;9.992;2022-07-22T15:17:59;43.60;33.10
22503;DHT22;11418;48.118;9.992;2022-07-22T15:21:59;42.00;33.60
22503;DHT22;11418;48.118;9.992;2022-07-22T15:26:01;42.70;32.20
22503;DHT22;11418;48.118;9.992;2022-07-22T15:30:04;43.50;32.40
22503;DHT22;11418;48.118;9.992;2022-07-22T15:34:05;45.30;32.40
22503;DHT22;11418;48.118;9.992;2022-07-22T15:38:06;45.40;30.60
22503;DHT22;11418;48.118;9.992;2022-07-22T15:42:06;45.20;28.90
22503;DHT22;11418;48.118;9.992;2022-07-22T15:46:08;43.00;32.00
22503;DHT22;11418;48.118;9.992;2022-07-22T15:50:09;39.00;36.20
22503;DHT22;11418;48.118;9.992;2022-07-22T15:54:09;35.70;42.20
22503;DHT22;11418;48.118;9.992;2022-07-22T15:58:10;33.90;45.80
22503;DHT22;11418;48.118;9.992;2022-07-22T16:02:29;32.90;47.80
22503;DHT22;11418;48.118;9.992;2022-07-22T16:06:30;32.40;47.60
22503;DHT22;11418;48.118;9.992;2022-07-22T16:10:31;32.40;45.30
22503;DHT22;11418;48.118;9.992;2022-07-22T16:14:31;32.40;50.00
22503;DHT22;11418;48.118;9.992;2022-07-22T16:18:32;32.20;48.20
22503;DHT22;11418;48.118;9.992;2022-07-22T16:22:32;32.10;53.90
22503;DHT22;11418;48.118;9.992;2022-07-22T16:26:33;32.00;54.50
22503;DHT22;11418;48.118;9.992;2022-07-22T16:30:34;31.90;52.00
22503;DHT22;11418;48.118;9.992;2022-07-22T16:34:34;31.90;53.60
22503;DHT22;11418;48.118;9.992;2022-07-22T16:38:35;32.60;51.20
22503;DHT22;11418;48.118;9.992;2022-07-22T16:42:35;33.00;52.10
22503;DHT22;11418;48.118;9.992;2022-07-22T16:46:36;33.20;47.70
22503;DHT22;11418;48.118;9.992;2022-07-22T16:50:36;33.40;42.40
22503;DHT22;11418;48.118;9.992;2022-07-22T16:54:37;33.20;48.00
22503;DHT22;11418;48.118;9.992;2022-07-22T16:58:38;32.60;48.00
22503;DHT22;11418;48.118;9.992;2022-07-22T17:02:38;32.20;53.80
22503;DHT22;11418;48.118;9.992;2022-07-22T17:06:39;31.70;52.80
22503;DHT22;11418;48.118;9.992;2022-07-22T17:10:39;31.00;58.60
22503;DHT22;11418;48.118;9.992;2022-07-22T17:14:40;30.50;61.30
22503;DHT22;11418;48.118;9.992;2022-07-22T17:18:40;30.00;60.00
22503;DHT22;11418;48.118;9.992;2022-07-22T17:22:42;29.60;60.90
22503;DHT22;11418;48.118;9.992;2022-07-22T17:26:42;29.50;59.30
22503;DHT22;11418;48.118;9.992;2022-07-22T17:30:43;29.50;57.40
22503;DHT22;11418;48.118;9.992;2022-07-22T17:34:43;29.60;61.10
22503;DHT22;11418;48.118;9.992;2022-07-22T17:38:47;29.40;55.60
22503;DHT22;11418;48.118;9.992;2022-07-22T17:42:48;29.40;56.50
22503;DHT22;11418;48.118;9.992;2022-07-22T17:46:48;29.30;59.30
22503;DHT22;11418;48.118;9.992;2022-07-22T17:50:49;29.20;56.20
22503;DHT22;11418;48.118;9.992;2022-07-22T17:54:50;29.00;62.10
22503;DHT22;11418;48.118;9.992;2022-07-22T17:58:50;28.50;63.10
22503;DHT22;11418;48.118;9.992;2022-07-22T18:02:52;28.40;60.80
22503;DHT22;11418;48.118;9.992;2022-07-22T18:06:52;28.10;62.00
22503;DHT22;11418;48.118;9.992;2022-07-22T18:10:53;27.90;62.70
22503;DHT22;11418;48.118;9.992;2022-07-22T18:14:57;27.60;65.30
22503;DHT22;11418;48.118;9.992;2022-07-22T18:18:59;27.10;66.30
22503;DHT22;11418;48.118;9.992;2022-07-22T18:22:59;27.00;65.80
22503;DHT22;11418;48.118;9.992;2022-07-22T18:27:00;26.80;65.80
22503;DHT22;11418;48.118;9.992;2022-07-22T18:31:00;26.60;66.70
22503;DHT22;11418;48.118;9.992;2022-07-22T18:35:01;26.50;68.30
22503;DHT22;11418;48.118;9.992;2022-07-22T18:39:02;26.20;70.50
22503;DHT22;11418;48.118;9.992;2022-07-22T18:43:03;26.00;72.10
22503;DHT22;11418;48.118;9.992;2022-07-22T18:47:04;25.70;72.10
22503;DHT22;11418;48.118;9.992;2022-07-22T18:51:05;25.60;73.90
22503;DHT22;11418;48.118;9.992;2022-07-22T18:55:07;25.60;76.20
22503;DHT22;11418;48.118;9.992;2022-07-22T18:59:07;25.50;75.80
22503;DHT22;11418;48.118;9.992;2022-07-22T19:03:08;25.30;83.80
22503;DHT22;11418;48.118;9.992;2022-07-22T19:07:09;25.30;80.40
22503;DHT22;11418;48.118;9.992;2022-07-22T19:11:09;25.10;81.80
22503;DHT22;11418;48.118;9.992;2022-07-22T19:15:10;25.10;80.30
22503;DHT22;11418;48.118;9.992;2022-07-22T19:19:11;24.90;83.30
22503;DHT22;11418;48.118;9.992;2022-07-22T19:23:17;24.70;87.20
22503;DHT22;11418;48.118;9.992;2022-07-22T19:27:20;24.70;87.80
22503;DHT22;11418;48.118;9.992;2022-07-22T19:31:26;24.50;88.80
22503;DHT22;11418;48.118;9.992;2022-07-22T19:35:35;24.40;89.20
22503;DHT22;11418;48.118;9.992;2022-07-22T19:39:36;24.40;91.70
22503;DHT22;11418;48.118;9.992;2022-07-22T19:43:37;24.30;92.10
22503;DHT22;11418;48.118;9.992;2022-07-22T19:47:37;24.00;93.00
22503;DHT22;11418;48.118;9.992;2022-07-22T19:51:38;23.60;94.10
22503;DHT22;11418;48.118;9.992;2022-07-22T19:55:38;23.30;97.10
22503;DHT22;11418;48.118;9.992;2022-07-22T19:59:39;23.10;98.10
22503;DHT22;11418;48.118;9.992;2022-07-22T20:03:40;23.00;99.80
22503;DHT22;11418;48.118;9.992;2022-07-22T20:07:43;23.10;99.60
22503;DHT22;11418;48.118;9.992;2022-07-22T20:11:44;23.10;99.90
22503;DHT22;11418;48.118;9.992;2022-07-22T20:15:44;22.70;99.90
22503;DHT22;11418;48.118;9.992;2022-07-22T20:19:45;22.40;99.90
22503;DHT22;11418;48.118;9.992;2022-07-22T20:23:45;22.30;99.90
22503;DHT22;11418;48.118;9.992;2022-07-22T20:27:48;22.20;99.90
22503;DHT22;11418;48.118;9.992;2022-07-22T20:31:48;21.90;99.90
22503;DHT22;11418;48.118;9.992;2022-07-22T20:35:51;21.90;99.90
22503;DHT22;11418;48.118;9.992;2022-07-22T20:39:51;21.80;99.90
22503;DHT22;11418;48.118;9.992;2022-07-22T20:43:52;22.20;99.90
22503;DHT22;11418;48.118;9.992;2022-07-22T20:47:53;22.00;99.90
22503;DHT22;11418;48.118;9.992;2022-07-22T20:51:53;22.30;99.90
22503;DHT22;11418;48.118;9.992;2022-07-22T20:55:54;22.40;99.90
22503;DHT22;11418;48.118;9.992;2022-07-22T20:59:54;22.50;99.90
22503;DHT22;11418;48.118;9.992;2022-07-22T21:03:55;22.40;99.90
22503;DHT22;11418;48.118;9.992;2022-07-22T21:07:55;22.80;99.90
22503;DHT22;11418;48.118;9.992;2022-07-22T21:11:56;23.10;99.90
22503;DHT22;11418;48.118;9.992;2022-07-22T21:15:56;22.90;99.90
22503;DHT22;11418;48.118;9.992;2022-07-22T21:19:57;22.90;99.90
22503;DHT22;11418;48.118;9.992;2022-07-22T21:23:58;22.90;99.90
22503;DHT22;11418;48.118;9.992;2022-07-22T21:27:59;22.60;99.90
22503;DHT22;11418;48.118;9.992;2022-07-22T21:31:59;22.40;99.90
22503;DHT22;11418;48.118;9.992;2022-07-22T21:36:00;22.40;99.90
22503;DHT22;11418;48.118;9.992;2022-07-22T21:40:00;22.20;99.90
22503;DHT22;11418;48.118;9.992;2022-07-22T21:44:01;22.10;99.90
22503;DHT22;11418;48.118;9.992;2022-07-22T21:48:01;22.00;99.90
22503;DHT22;11418;48.118;9.992;2022-07-22T21:52:04;21.80;99.90
22503;DHT22;11418;48.118;9.992;2022-07-22T21:56:04;21.70;99.90
22503;DHT22;11418;48.118;9.992;2022-07-22T22:00:23;21.50;99.90
22503;DHT22;11418;48.118;9.992;2022-07-22T22:04:24;21.40;99.90
22503;DHT22;11418;48.118;9.992;2022-07-22T22:08:25;21.40;99.90
22503;DHT22;11418;48.118;9.992;2022-07-22T22:12:25;21.60;99.90
22503;DHT22;11418;48.118;9.992;2022-07-22T22:16:26;21.50;99.90
22503;DHT22;11418;48.118;9.992;2022-07-22T22:20:26;21.60;99.90
22503;DHT22;11418;48.118;9.992;2022-07-22T22:24:27;21.30;99.90
22503;DHT22;11418;48.118;9.992;2022-07-22T22:28:28;21.00;99.90
22503;DHT22;11418;48.118;9.992;2022-07-22T22:32:28;20.80;99.90
22503;DHT22;11418;48.118;9.992;2022-07-22T22:36:29;20.80;99.90
22503;DHT22;11418;48.118;9.992;2022-07-22T22:40:30;20.90;99.90
22503;DHT22;11418;48.118;9.992;2022-07-22T22:44:30;21.40;99.90
22503;DHT22;11418;48.118;9.992;2022-07-22T22:48:32;21.60;99.90
22503;DHT22;11418;48.118;9.992;2022-07-22T22:52:32;21.70;99.90
22503;DHT22;11418;48.118;9.992;2022-07-22T22:56:33;22.00;99.90
22503;DHT22;11418;48.118;9.992;2022-07-22T23:00:34;22.10;99.90
22503;DHT22;11418;48.118;9.992;2022-07-22T23:04:34;22.00;99.90
22503;DHT22;11418;48.118;9.992;2022-07-22T23:08:35;21.80;99.90
22503;DHT22;11418;48.118;9.992;2022-07-22T23:12:35;21.30;99.90
22503;DHT22;11418;48.118;9.992;2022-07-22T23:16:36;21.00;99.90
22503;DHT22;11418;48.118;9.992;2022-07-22T23:20:36;20.90;99.90
22503;DHT22;11418;48.118;9.992;2022-07-22T23:24:49;21.20;99.90
22503;DHT22;11418;48.118;9.992;2022-07-22T23:28:49;21.80;99.90
22503;DHT22;11418;48.118;9.992;2022-07-22T23:32:51;21.50;99.90
22503;DHT22;11418;48.118;9.992;2022-07-22T23:36:52;20.90;99.90
22503;DHT22;11418;48.118;9.992;2022-07-22T23:40:52;20.30;99.90
22503;DHT22;11418;48.118;9.992;2022-07-22T23:44:53;19.80;99.90
22503;DHT22;11418;48.118;9.992;2022-07-22T23:48:54;19.60;99.90
22503;DHT22;11418;48.118;9.992;2022-07-22T23:52:55;19.80;99.90
22503;DHT22;11418;48.118;9.992;2022-07-22T23:56:55;19.80;99.90
